Avonlea, Canada
Current Conditions -  °F | °C
As of 6:00 PM on Monday 20 Oct 2014 (Local Time) from CYMJ Reporting Station
Clear Clear  
Wind Chill: 64°   Ceiling: Unl
Heat Index: 64°   Visibility: 15mi
Dew Point: 46°   Wind: 8mph
Humidity: 52%   Direction: 140°SE
Pressure: 29.73"   Gusts: NA
Location:  50.02°N, 105.07°W
Report Text: CYMJ 210000Z 14007KT 15SM SKC 18/08 A2973 RMK SLP078
Loading
Personal Weather Stations






























Interactive Weather Map
Tropical Storm Tracking
New forecast layout! Learn more

10-Day Weather Forecast

Advertisements
Track Severe Weather on mobile